createdAt,value
2022-11-07T00:00:24.885Z,26
2022-11-07T00:15:24.409Z,29
2022-11-07T00:30:25.080Z,31
2022-11-07T00:45:24.879Z,33
2022-11-07T01:00:24.701Z,33
2022-11-07T01:15:24.493Z,34
2022-11-07T01:30:25.164Z,32
2022-11-07T01:45:24.346Z,32
2022-11-07T02:00:24.840Z,31
2022-11-07T02:15:24.204Z,32
2022-11-07T02:30:25.233Z,35
2022-11-07T02:45:24.704Z,37
2022-11-07T03:00:24.157Z,41
2022-11-07T03:15:24.262Z,37
2022-11-07T03:30:24.602Z,37
2022-11-07T03:45:25.197Z,41
2022-11-07T04:00:24.532Z,36
2022-11-07T04:15:24.654Z,46
2022-11-07T04:30:24.298Z,42
2022-11-07T04:45:24.231Z,44
2022-11-07T05:00:24.647Z,48
2022-11-07T05:15:25.095Z,63
2022-11-07T05:30:24.671Z,52
2022-11-07T05:45:24.351Z,49
2022-11-07T06:00:24.578Z,52
2022-11-07T06:15:24.655Z,48
2022-11-07T06:30:24.372Z,36
2022-11-07T06:45:24.825Z,29
2022-11-07T07:00:23.882Z,23
2022-11-07T07:15:23.974Z,26
2022-11-07T07:30:23.939Z,21
2022-11-07T07:45:24.300Z,18
2022-11-07T08:00:24.349Z,19
2022-11-07T08:15:24.900Z,29
2022-11-07T08:30:24.413Z,17
2022-11-07T08:45:24.194Z,17
2022-11-07T09:00:25.048Z,12
2022-11-07T09:15:24.384Z,13
2022-11-07T09:30:27.187Z,13
2022-11-07T09:45:24.668Z,21
2022-11-07T10:00:24.080Z,11
2022-11-07T10:15:23.832Z,12
2022-11-07T10:30:24.361Z,11
2022-11-07T10:45:24.327Z,13
2022-11-07T11:00:23.967Z,9
2022-11-07T11:15:24.630Z,17
2022-11-07T11:30:24.891Z,11
2022-11-07T11:45:24.222Z,13
2022-11-07T12:00:24.826Z,9
2022-11-07T12:15:24.358Z,10
2022-11-07T12:30:24.587Z,12
2022-11-07T12:45:24.225Z,13
2022-11-07T13:00:30.139Z,16
2022-11-07T13:15:24.351Z,11
2022-11-07T13:30:24.792Z,14
2022-11-07T13:45:24.319Z,14
2022-11-07T14:00:25.075Z,20
2022-11-07T14:15:24.462Z,13
2022-11-07T14:30:24.486Z,17
2022-11-07T14:46:13.091Z,14
2022-11-07T15:00:24.164Z,15
2022-11-07T15:15:24.480Z,21
2022-11-07T15:30:24.400Z,13
2022-11-07T15:45:24.901Z,26
2022-11-07T16:00:24.440Z,23
2022-11-07T16:15:24.250Z,23
2022-11-07T16:30:24.918Z,38
2022-11-07T16:45:25.093Z,36
2022-11-07T17:00:24.840Z,27
2022-11-07T17:15:24.984Z,42
2022-11-07T17:30:24.012Z,61
2022-11-07T17:45:24.674Z,51
2022-11-07T18:00:25.038Z,55
2022-11-07T18:15:25.031Z,56
2022-11-07T18:30:24.085Z,42
2022-11-07T18:45:24.790Z,37
2022-11-07T19:00:24.651Z,48
2022-11-07T19:15:24.916Z,40
2022-11-07T19:30:24.837Z,38
2022-11-07T19:45:24.041Z,33
2022-11-07T20:00:25.154Z,35
2022-11-07T20:15:24.936Z,32
2022-11-07T20:30:24.615Z,32
2022-11-07T20:45:24.183Z,35
2022-11-07T21:00:25.161Z,121
2022-11-07T21:15:24.990Z,33
2022-11-07T21:30:24.397Z,33
2022-11-07T21:45:24.874Z,37
2022-11-07T22:00:24.262Z,36
2022-11-07T22:15:24.479Z,26
2022-11-07T22:30:23.760Z,25
2022-11-07T22:45:24.532Z,53
2022-11-07T23:00:24.456Z,34
2022-11-07T23:15:24.585Z,36
2022-11-07T23:30:25.098Z,26
2022-11-07T23:45:25.027Z,29
